Impacts TAF Board INFO
FOR SITUATIONAL AWARENESS. NOT TO BE USED FOR FLIGHT PLANNING PURPOSES.
IDs:

KIAH - Houston/Bush Intl, TX, US

Issued at 2320 UTC 17 Aug 2018
Updated at 0125 UTC 18 Aug 2018
Potential Impact None Slight Moderate High
Time<<19/02Z 19/03Z 19/04Z 19/05Z 19/06Z 19/07Z 19/08Z 19/09Z 19/10Z 19/11Z 19/12Z 19/13Z 19/14Z
Type PRVL PRVL PRVL PRVL
VIS >6 >6 >6 >6
CIG -- -- -- --
Cover SCT SCT SCT SCT
FltCat VFR VFR VFR VFR
WX -- -- -- --
WDir 220 220 220 220
WSpd 6 6 6 6
WGst -- -- -- --

Raw TAF
KIAH 172320Z 1800/1906 15012KT P6SM SCT060
  FM180200 18005KT P6SM FEW020 SCT250
  FM181500 22006KT P6SM FEW025 SCT250


METAR Board
Radar Display
Forecast Discussion

FOR SITUATIONAL AWARENESS. NOT TO BE USED FOR FLIGHT PLANNING PURPOSES.